Time;durP1;ratioP1;P1;durP2;ratioP2;P2;SDS_P1;SDS_P2;PMS_P1;PMS_P2;Temp;Humidity;BMP_temperature;BMP_pressure;BME280_temperature;BME280_humidity;BME280_pressure;Samples;Min_cycle;Max_cycle;Signal;HPM_P1;HPM_P2
2022/12/04 00:00:15;;;;;;;34.15;21.15;;;1.80;99.90;;;;;;5019272;28;20128;-78
2022/12/04 00:02:41;;;;;;;37.95;22.05;;;1.80;99.90;;;;;;5017807;28;20057;-74
2022/12/04 00:05:08;;;;;;;34.47;21.40;;;1.80;99.90;;;;;;5020520;28;20054;-76
2022/12/04 00:07:34;;;;;;;40.08;22.27;;;1.80;99.90;;;;;;5005244;28;20478;-77
2022/12/04 00:10:00;;;;;;;36.78;21.35;;;1.70;99.90;;;;;;5014707;28;20043;-75
2022/12/04 00:12:26;;;;;;;33.33;20.83;;;2.50;99.90;;;;;;5020427;28;20967;-75
2022/12/04 00:14:52;;;;;;;37.47;20.15;;;2.30;99.90;;;;;;5013639;28;20041;-76
2022/12/04 00:17:18;;;;;;;33.85;21.15;;;1.80;99.90;;;;;;5017422;28;20091;-75
2022/12/04 00:19:44;;;;;;;35.28;22.45;;;1.70;99.90;;;;;;5019146;28;20103;-76
2022/12/04 00:22:09;;;;;;;38.03;21.77;;;2.80;99.90;;;;;;5019374;28;20596;-76
2022/12/04 00:24:35;;;;;;;36.30;21.70;;;2.70;99.90;;;;;;5025615;28;20375;-76
2022/12/04 00:27:01;;;;;;;35.95;24.23;;;1.70;99.90;;;;;;5015859;28;20430;-75
2022/12/04 00:29:27;;;;;;;35.92;22.60;;;1.90;99.90;;;;;;5017477;28;20047;-75
2022/12/04 00:31:53;;;;;;;39.42;21.38;;;1.70;99.90;;;;;;5014169;28;20057;-75
2022/12/04 00:34:18;;;;;;;34.83;23.75;;;1.70;99.90;;;;;;5017296;28;20536;-75
2022/12/04 00:36:44;;;;;;;33.95;18.67;;;2.50;99.90;;;;;;5016777;28;20852;-75
2022/12/04 00:39:10;;;;;;;40.70;26.10;;;1.60;99.90;;;;;;5009942;28;20710;-75
2022/12/04 00:41:35;;;;;;;42.78;24.33;;;1.60;99.90;;;;;;5013980;28;20115;-75
2022/12/04 00:44:02;;;;;;;43.22;26.02;;;1.60;99.90;;;;;;5027478;28;20053;-76
2022/12/04 00:46:28;;;;;;;37.15;24.42;;;1.90;99.90;;;;;;5016591;28;20107;-77
2022/12/04 00:48:54;;;;;;;42.40;25.13;;;1.60;99.90;;;;;;5018840;28;20052;-76
2022/12/04 00:51:22;;;;;;;43.53;24.13;;;2.90;99.90;;;;;;5018684;28;20049;-75
2022/12/04 00:53:49;;;;;;;42.42;24.52;;;1.60;99.90;;;;;;5013968;28;20041;-75
2022/12/04 00:56:24;;;;;;;41.40;23.77;;;1.60;99.90;;;;;;5015893;28;20154;-75
2022/12/04 00:58:58;;;;;;;36.53;24.55;;;1.60;99.90;;;;;;5013593;28;20136;-75
2022/12/04 01:01:24;;;;;;;43.97;26.77;;;1.60;99.90;;;;;;5005589;28;20156;-75
2022/12/04 01:03:50;;;;;;;44.33;25.50;;;1.60;99.90;;;;;;5018551;28;20045;-76
2022/12/04 01:06:17;;;;;;;44.90;26.35;;;1.00;99.90;;;;;;5012510;28;20057;-75
2022/12/04 01:08:43;;;;;;;44.15;24.73;;;1.50;99.90;;;;;;5016959;28;20049;-76
2022/12/04 01:11:08;;;;;;;45.25;26.88;;;2.90;99.90;;;;;;5020608;28;20061;-76
2022/12/04 01:13:34;;;;;;;46.20;25.98;;;2.20;99.90;;;;;;5019465;28;20067;-76
2022/12/04 01:16:00;;;;;;;44.33;27.02;;;1.50;99.90;;;;;;5023199;28;20057;-76
2022/12/04 01:18:25;;;;;;;42.55;26.27;;;2.10;99.90;;;;;;5019199;28;20528;-77
2022/12/04 01:20:52;;;;;;;44.45;27.42;;;2.50;99.90;;;;;;5019764;28;20095;-76
2022/12/04 01:23:18;;;;;;;48.30;26.52;;;1.50;99.90;;;;;;5017890;28;20057;-76
2022/12/04 01:25:55;;;;;;;46.28;29.10;;;2.10;99.90;;;;;;5014574;28;20057;-75
2022/12/04 01:28:21;;;;;;;43.38;27.13;;;1.50;99.90;;;;;;5012780;28;20085;-75
2022/12/04 01:31:12;;;;;;;48.30;25.25;;;1.50;99.90;;;;;;5017989;28;20050;-75
2022/12/04 01:33:38;;;;;;;51.72;28.45;;;1.50;99.90;;;;;;5018795;28;20047;-75
2022/12/04 01:36:06;;;;;;;41.05;25.67;;;1.40;99.90;;;;;;5009870;28;20079;-76
2022/12/04 01:38:33;;;;;;;43.63;27.73;;;1.40;99.90;;;;;;5017951;28;20049;-75
2022/12/04 01:40:58;;;;;;;49.45;28.15;;;1.40;99.90;;;;;;5013362;28;20053;-75
2022/12/04 01:43:26;;;;;;;48.72;27.63;;;1.40;99.90;;;;;;5021511;28;20040;-76
2022/12/04 01:45:53;;;;;;;45.40;26.75;;;1.50;99.90;;;;;;5021149;28;20414;-76
2022/12/04 01:48:37;;;;;;;49.75;27.58;;;1.40;99.90;;;;;;5018079;28;20644;-77
2022/12/04 01:51:09;;;;;;;49.30;26.67;;;1.40;99.90;;;;;;5013454;28;20053;-76
2022/12/04 01:53:38;;;;;;;46.15;27.30;;;1.90;99.90;;;;;;5030561;28;20160;-76
2022/12/04 01:56:04;;;;;;;42.53;24.45;;;1.40;99.90;;;;;;5022662;28;20112;-76
2022/12/04 01:58:36;;;;;;;45.25;27.60;;;1.40;99.90;;;;;;5017193;28;20053;-76
2022/12/04 02:01:04;;;;;;;48.85;28.02;;;2.80;99.90;;;;;;5019935;28;20088;-76
2022/12/04 02:03:30;;;;;;;51.30;30.50;;;1.40;99.90;;;;;;5018924;28;20045;-75
2022/12/04 02:05:55;;;;;;;51.53;28.42;;;1.40;99.90;;;;;;5011517;28;20810;-76
2022/12/04 02:08:21;;;;;;;46.33;27.98;;;1.40;99.90;;;;;;5017561;28;20084;-76
2022/12/04 02:11:02;;;;;;;49.38;30.30;;;1.70;99.90;;;;;;5011646;28;20146;-76
2022/12/04 02:13:39;;;;;;;51.97;29.70;;;1.30;99.90;;;;;;5017586;28;20042;-76
2022/12/04 02:16:24;;;;;;;51.92;28.33;;;1.30;99.90;;;;;;5022320;28;20148;-75
2022/12/04 02:19:19;;;;;;;51.72;30.58;;;1.30;99.90;;;;;;4986271;28;20490;-76
2022/12/04 02:21:51;;;;;;;50.53;30.75;;;1.30;99.90;;;;;;5004052;28;20060;-76
2022/12/04 02:24:35;;;;;;;57.63;30.38;;;1.30;99.90;;;;;;5012799;28;20245;-76
2022/12/04 02:27:21;;;;;;;49.78;29.20;;;1.30;99.90;;;;;;5026818;28;20053;-76
2022/12/04 02:29:56;;;;;;;45.60;29.27;;;1.40;99.90;;;;;;5013804;28;20053;-76
2022/12/04 02:32:34;;;;;;;49.45;29.75;;;1.60;99.90;;;;;;5017916;28;20045;-76
2022/12/04 02:35:05;;;;;;;46.75;27.55;;;1.40;99.90;;;;;;5018139;28;20095;-77
2022/12/04 02:37:39;;;;;;;50.03;28.40;;;1.70;99.90;;;;;;5016582;28;20100;-76
2022/12/04 02:40:26;;;;;;;44.55;26.83;;;1.30;99.90;;;;;;5018306;28;20081;-76
2022/12/04 02:43:20;;;;;;;52.28;29.88;;;1.30;99.90;;;;;;5018793;28;20450;-76
2022/12/04 02:46:25;;;;;;;49.67;28.73;;;1.30;99.90;;;;;;5017621;28;20053;-76
2022/12/04 02:48:55;;;;;;;49.72;26.92;;;1.20;99.90;;;;;;5018110;28;20807;-76
2022/12/04 02:51:24;;;;;;;47.08;28.23;;;1.20;99.90;;;;;;5014664;28;20045;-77
2022/12/04 02:53:55;;;;;;;51.80;28.17;;;2.10;99.90;;;;;;5019816;28;20057;-76
2022/12/04 02:56:29;;;;;;;48.50;27.85;;;1.20;99.90;;;;;;5005917;28;20076;-76
2022/12/04 02:59:08;;;;;;;50.75;30.75;;;2.00;99.90;;;;;;5017508;28;20127;-76
2022/12/04 03:01:40;;;;;;;46.90;29.00;;;1.20;99.90;;;;;;5019039;28;20053;-76
2022/12/04 03:04:29;;;;;;;43.87;27.37;;;1.90;99.90;;;;;;5019157;28;20138;-76
2022/12/04 03:06:59;;;;;;;54.10;29.85;;;1.20;99.90;;;;;;5013417;28;20422;-76
2022/12/04 03:09:54;;;;;;;45.97;29.05;;;2.10;99.90;;;;;;5012349;28;20045;-76
2022/12/04 03:12:37;;;;;;;54.90;32.50;;;1.20;99.90;;;;;;5023551;28;20049;-77
2022/12/04 03:15:09;;;;;;;49.15;28.55;;;1.10;99.90;;;;;;5021135;28;20071;-76
2022/12/04 03:18:04;;;;;;;50.40;30.40;;;1.10;99.90;;;;;;5030460;28;20052;-76
2022/12/04 03:20:33;;;;;;;48.38;27.92;;;1.10;99.90;;;;;;5009154;28;20677;-76
2022/12/04 03:23:06;;;;;;;49.50;32.95;;;2.00;99.90;;;;;;5018999;28;20049;-76
2022/12/04 03:25:36;;;;;;;54.03;31.03;;;1.40;99.90;;;;;;5018459;28;20070;-76
2022/12/04 03:28:09;;;;;;;53.53;30.15;;;1.30;99.90;;;;;;5032299;28;20049;-76
2022/12/04 03:30:42;;;;;;;49.15;30.63;;;1.00;99.90;;;;;;5019148;28;20041;-76
2022/12/04 03:33:15;;;;;;;43.63;28.35;;;1.80;99.90;;;;;;5025915;28;20055;-76
2022/12/04 03:35:53;;;;;;;50.08;29.80;;;2.30;99.90;;;;;;5023730;28;20099;-76
2022/12/04 03:38:37;;;;;;;58.97;32.47;;;1.10;99.90;;;;;;5016019;28;20046;-76
2022/12/04 03:41:17;;;;;;;51.80;30.92;;;1.10;99.90;;;;;;5017656;28;20041;-75
2022/12/04 03:44:04;;;;;;;47.47;29.17;;;1.10;99.90;;;;;;5024158;28;20084;-75
2022/12/04 03:46:47;;;;;;;48.55;28.40;;;1.10;99.90;;;;;;5008845;28;20060;-76
2022/12/04 03:49:20;;;;;;;;;;;1.10;99.90;;;;;;5010612;28;20474;-75
2022/12/04 03:52:02;;;;;;;48.42;29.45;;;1.00;99.90;;;;;;5015789;28;20040;-75
2022/12/04 03:54:28;;;;;;;47.83;27.90;;;1.00;99.90;;;;;;5013757;28;20092;-75
2022/12/04 03:57:01;;;;;;;51.72;30.60;;;1.00;99.90;;;;;;5013549;28;20160;-75
2022/12/04 03:59:39;;;;;;;49.05;30.00;;;1.00;99.90;;;;;;5016977;28;20052;-75
2022/12/04 04:02:09;;;;;;;56.92;34.95;;;1.10;99.90;;;;;;5017903;28;20045;-75
2022/12/04 04:04:38;;;;;;;48.80;29.10;;;1.00;99.90;;;;;;5019041;28;20758;-75
2022/12/04 04:07:30;;;;;;;45.15;30.33;;;1.00;99.90;;;;;;5019810;28;20052;-75
2022/12/04 04:10:01;;;;;;;44.42;27.50;;;1.30;99.90;;;;;;5010230;28;20906;-75
2022/12/04 04:12:34;;;;;;;58.70;32.33;;;1.10;99.90;;;;;;5019027;28;20767;-75
2022/12/04 04:26:19;;;;;;;45.67;27.00;;;1.00;99.90;;;;;;5021342;28;20800;-75
2022/12/04 04:28:45;;;;;;;50.63;30.98;;;1.00;99.90;;;;;;5017329;28;20053;-75
2022/12/04 04:31:25;;;;;;;50.28;29.20;;;1.00;99.90;;;;;;5014364;28;20049;-75
2022/12/04 04:34:03;;;;;;;54.83;28.38;;;1.50;99.90;;;;;;4999120;28;20080;-75
2022/12/04 04:36:46;;;;;;;60.85;30.83;;;1.00;99.90;;;;;;5016893;28;20054;-75
2022/12/04 04:39:12;;;;;;;;;;;1.10;99.90;;;;;;5024862;28;20049;-75
2022/12/04 04:41:40;;;;;;;51.78;29.75;;;0.90;99.90;;;;;;5021048;28;19981;-75
2022/12/04 04:44:25;;;;;;;49.30;27.88;;;0.90;99.90;;;;;;5021148;28;20045;-75
2022/12/04 04:46:56;;;;;;;51.70;29.55;;;1.00;99.90;;;;;;5015420;28;20046;-75
2022/12/04 04:49:27;;;;;;;48.42;28.58;;;1.60;99.90;;;;;;5026554;28;20119;-75
2022/12/04 04:51:53;;;;;;;52.22;29.58;;;1.00;99.90;;;;;;5021019;28;20917;-76
2022/12/04 04:54:20;;;;;;;50.78;28.50;;;2.00;99.90;;;;;;5020147;28;20652;-76
2022/12/04 04:56:46;;;;;;;50.75;30.38;;;1.00;99.90;;;;;;5022246;28;20049;-75
2022/12/04 04:59:13;;;;;;;48.38;26.08;;;1.20;99.90;;;;;;5021404;28;20163;-75
2022/12/04 05:01:41;;;;;;;50.35;30.27;;;1.40;99.90;;;;;;5021743;28;20972;-75
2022/12/04 05:04:07;;;;;;;53.05;28.00;;;1.00;99.90;;;;;;5017630;28;20037;-75
2022/12/04 05:06:33;;;;;;;42.10;26.55;;;2.10;99.90;;;;;;5019172;28;20783;-75
2022/12/04 05:08:58;;;;;;;53.90;30.60;;;1.00;99.90;;;;;;5014362;28;20045;-75
2022/12/04 05:11:24;;;;;;;55.65;32.20;;;0.90;99.90;;;;;;5027688;28;20037;-75
2022/12/04 05:13:50;;;;;;;53.40;31.65;;;2.20;99.90;;;;;;5021358;28;20618;-75
2022/12/04 05:16:16;;;;;;;46.67;28.63;;;1.00;99.90;;;;;;5019571;28;20041;-75
2022/12/04 05:21:29;;;;;;;52.65;30.98;;;1.00;99.90;;;;;;4998132;28;20058;-76
2022/12/04 05:23:54;;;;;;;56.53;31.88;;;2.10;99.90;;;;;;5025587;28;20902;-74
2022/12/04 05:26:20;;;;;;;54.33;31.17;;;1.20;99.90;;;;;;5018387;28;20099;-75
2022/12/04 05:28:46;;;;;;;46.88;29.20;;;1.00;99.90;;;;;;5021296;28;20053;-75
2022/12/04 05:31:11;;;;;;;51.42;29.42;;;1.00;99.90;;;;;;5028920;28;20149;-75
2022/12/04 05:33:37;;;;;;;53.40;33.90;;;1.10;99.90;;;;;;5026737;28;20051;-75
2022/12/04 05:36:09;;;;;;;58.58;31.42;;;2.20;99.90;;;;;;5019261;28;20092;-75
2022/12/04 05:38:35;;;;;;;51.05;30.77;;;1.10;99.90;;;;;;5020210;28;20163;-75
2022/12/04 05:41:02;;;;;;;50.55;31.48;;;1.70;99.90;;;;;;5020199;28;20045;-75
2022/12/04 05:43:29;;;;;;;41.95;28.17;;;1.10;99.90;;;;;;5008356;28;20223;-75
2022/12/04 05:45:59;;;;;;;47.47;28.35;;;1.10;99.90;;;;;;5020321;28;20569;-75
2022/12/04 05:48:24;;;;;;;47.70;31.45;;;1.10;99.90;;;;;;5019445;28;20046;-75
2022/12/04 05:50:50;;;;;;;48.97;29.88;;;1.10;99.90;;;;;;5022069;28;20377;-75
2022/12/04 05:53:16;;;;;;;54.88;32.10;;;1.10;99.90;;;;;;5036844;28;20779;-75
2022/12/04 05:55:41;;;;;;;55.35;30.77;;;1.30;99.90;;;;;;5021091;28;20474;-75
2022/12/04 05:58:07;;;;;;;48.42;29.20;;;2.80;99.90;;;;;;5018800;28;20963;-75
2022/12/04 06:00:33;;;;;;;50.30;31.50;;;1.10;99.90;;;;;;5020029;28;20053;-75
2022/12/04 06:02:58;;;;;;;49.88;30.10;;;1.20;99.90;;;;;;5018638;28;20049;-75
2022/12/04 06:05:24;;;;;;;48.63;29.92;;;2.20;99.90;;;;;;5018343;28;20045;-75
2022/12/04 06:07:49;;;;;;;47.33;29.80;;;1.20;99.90;;;;;;5019423;28;20050;-75
2022/12/04 06:10:15;;;;;;;52.97;30.55;;;1.50;99.90;;;;;;5020552;28;20042;-75
2022/12/04 06:12:41;;;;;;;46.08;30.33;;;1.20;99.90;;;;;;5014828;28;20080;-75
2022/12/04 06:15:07;;;;;;;49.53;30.15;;;2.20;99.90;;;;;;5021905;28;20410;-75
2022/12/04 06:17:32;;;;;;;48.95;29.73;;;1.20;99.90;;;;;;5019508;28;20045;-75
2022/12/04 06:19:58;;;;;;;56.47;32.30;;;1.50;99.90;;;;;;5019101;28;20044;-75
2022/12/04 06:22:24;;;;;;;55.00;30.95;;;1.70;99.90;;;;;;5020498;28;20152;-74
2022/12/04 06:24:50;;;;;;;46.33;26.20;;;1.20;99.90;;;;;;5016718;28;20478;-75
2022/12/04 06:27:15;;;;;;;48.47;30.10;;;1.20;99.90;;;;;;5020090;28;20068;-74
2022/12/04 06:29:41;;;;;;;47.97;29.38;;;2.40;99.90;;;;;;5015755;28;20135;-75
2022/12/04 06:32:07;;;;;;;50.35;29.17;;;1.20;99.90;;;;;;5018429;28;20052;-75
2022/12/04 06:34:34;;;;;;;46.80;29.05;;;1.10;99.90;;;;;;5018427;28;21215;-75
2022/12/04 06:37:00;;;;;;;49.25;30.73;;;2.00;99.90;;;;;;5020196;28;20502;-75
2022/12/04 06:39:25;;;;;;;50.75;29.63;;;1.10;99.90;;;;;;5017676;28;20049;-75
2022/12/04 06:41:51;;;;;;;51.97;29.95;;;1.80;99.90;;;;;;5018731;28;20121;-75
2022/12/04 06:44:16;;;;;;;52.00;30.40;;;1.50;99.90;;;;;;5017044;28;20150;-75
2022/12/04 06:46:42;;;;;;;60.03;30.60;;;1.20;99.90;;;;;;5023136;28;20364;-75
2022/12/04 06:49:08;;;;;;;50.60;29.42;;;2.00;99.90;;;;;;5015738;28;20121;-75
2022/12/04 06:51:36;;;;;;;54.53;31.67;;;1.10;99.90;;;;;;5027775;28;20048;-75
2022/12/04 06:54:02;;;;;;;50.72;28.85;;;2.00;99.90;;;;;;5015536;28;20049;-74
2022/12/04 06:56:30;;;;;;;56.20;31.45;;;1.20;99.90;;;;;;5020265;28;20073;-74
2022/12/04 06:58:58;;;;;;;51.33;31.45;;;1.20;99.90;;;;;;5015086;28;20128;-74
2022/12/04 07:01:26;;;;;;;48.65;29.83;;;1.70;99.90;;;;;;5023394;28;20127;-75
2022/12/04 07:03:52;;;;;;;49.58;27.90;;;1.20;99.90;;;;;;5018985;28;20050;-74
2022/12/04 07:06:27;;;;;;;54.95;33.45;;;1.10;99.90;;;;;;5008155;28;20631;-75
2022/12/04 07:08:56;;;;;;;52.97;30.55;;;1.10;99.90;;;;;;5014769;28;20045;-74
2022/12/04 07:11:23;;;;;;;49.10;29.85;;;1.70;99.90;;;;;;5025888;28;20820;-74
2022/12/04 07:13:50;;;;;;;54.58;32.55;;;1.10;99.90;;;;;;5015892;28;20049;-74
2022/12/04 07:16:18;;;;;;;51.38;29.98;;;1.10;99.90;;;;;;5018993;28;20065;-74
2022/12/04 07:18:44;;;;;;;59.10;32.13;;;1.10;99.90;;;;;;5007991;28;20054;-74
2022/12/04 07:21:13;;;;;;;53.30;30.92;;;2.50;99.90;;;;;;5025154;28;20148;-75
2022/12/04 07:23:39;;;;;;;59.65;33.22;;;1.80;99.90;;;;;;5014076;28;20584;-76
2022/12/04 07:26:07;;;;;;;58.10;32.13;;;1.90;99.90;;;;;;5024733;28;20063;-75
2022/12/04 07:28:34;;;;;;;53.33;30.88;;;1.10;99.90;;;;;;5009687;28;20073;-75
2022/12/04 07:31:06;;;;;;;53.25;32.35;;;1.60;99.90;;;;;;5018475;28;20081;-75
2022/12/04 07:33:33;;;;;;;48.63;29.67;;;1.10;99.90;;;;;;5016560;28;20042;-74
2022/12/04 07:36:01;;;;;;;53.08;29.42;;;1.50;99.90;;;;;;5015690;28;20049;-75
2022/12/04 07:38:28;;;;;;;53.75;32.90;;;1.90;99.90;;;;;;5012291;28;20053;-74
2022/12/04 07:40:58;;;;;;;57.13;31.80;;;1.10;99.90;;;;;;5014165;28;20048;-74
2022/12/04 07:43:24;;;;;;;53.53;31.60;;;1.20;99.90;;;;;;5009746;28;20042;-74
2022/12/04 07:45:50;;;;;;;52.17;31.88;;;1.80;99.90;;;;;;5017659;28;20054;-75
2022/12/04 07:48:16;;;;;;;53.33;29.67;;;1.20;99.90;;;;;;5018928;28;20782;-74
2022/12/04 07:50:42;;;;;;;50.13;32.78;;;1.10;99.90;;;;;;5021423;28;20047;-75
2022/12/04 07:53:08;;;;;;;48.83;31.42;;;1.10;99.90;;;;;;5013128;28;20962;-75
2022/12/04 07:55:33;;;;;;;49.30;32.58;;;1.20;99.90;;;;;;5008111;28;20141;-75
2022/12/04 07:57:59;;;;;;;51.97;32.58;;;2.50;99.90;;;;;;5023997;28;20053;-76
2022/12/04 08:00:25;;;;;;;49.92;30.98;;;1.20;99.90;;;;;;5021619;28;20050;-75
2022/12/04 08:02:50;;;;;;;50.00;31.08;;;1.20;99.90;;;;;;5013594;28;20071;-74
2022/12/04 08:05:16;;;;;;;57.00;31.75;;;1.60;99.90;;;;;;5023514;28;20081;-75
2022/12/04 08:07:42;;;;;;;53.10;31.33;;;2.30;99.90;;;;;;5016094;28;20107;-75
2022/12/04 08:10:08;;;;;;;48.70;31.67;;;2.10;99.90;;;;;;5023246;28;20603;-75
2022/12/04 08:12:34;;;;;;;51.33;29.55;;;1.20;99.90;;;;;;5024359;28;20155;-75
2022/12/04 08:15:00;;;;;;;42.65;24.83;;;1.20;99.90;;;;;;5021290;28;20049;-74
2022/12/04 08:17:26;;;;;;;47.63;30.33;;;1.30;99.90;;;;;;5019617;28;20061;-75
2022/12/04 08:19:52;;;;;;;52.15;29.27;;;2.10;99.90;;;;;;5028326;28;20041;-75
2022/12/04 08:22:17;;;;;;;54.58;31.27;;;1.30;99.90;;;;;;5022572;28;20119;-76
2022/12/04 08:24:43;;;;;;;45.92;28.80;;;1.30;99.90;;;;;;5011249;28;20622;-74
2022/12/04 08:27:08;;;;;;;38.90;25.38;;;1.40;99.90;;;;;;5021208;28;20172;-75
2022/12/04 08:29:35;;;;;;;52.13;28.70;;;1.80;99.90;;;;;;5021268;28;20049;-76
2022/12/04 08:32:01;;;;;;;41.17;24.67;;;1.70;99.90;;;;;;5016533;28;20051;-76
2022/12/04 08:34:26;;;;;;;45.15;28.17;;;1.40;99.90;;;;;;5021171;28;20052;-75
2022/12/04 08:36:52;;;;;;;53.92;30.20;;;1.40;99.90;;;;;;5012755;28;20046;-76
2022/12/04 08:39:18;;;;;;;51.53;26.60;;;2.70;99.90;;;;;;5016023;28;20053;-75
2022/12/04 08:41:43;;;;;;;50.58;29.95;;;1.40;99.90;;;;;;5015427;28;20132;-76
2022/12/04 08:44:09;;;;;;;50.28;28.80;;;1.70;99.90;;;;;;5017296;28;20056;-75
2022/12/04 08:46:35;;;;;;;49.38;30.02;;;1.90;99.90;;;;;;5011718;28;20773;-75
2022/12/04 08:49:01;;;;;;;50.75;30.70;;;1.50;99.90;;;;;;5016169;28;20772;-77
2022/12/04 08:51:29;;;;;;;49.85;27.58;;;1.50;99.90;;;;;;5014339;28;20045;-76
2022/12/04 08:53:57;;;;;;;45.60;28.52;;;2.60;99.90;;;;;;5015746;28;20057;-77
2022/12/04 08:56:23;;;;;;;52.85;31.23;;;1.60;99.90;;;;;;4996199;28;20045;-77
2022/12/04 08:58:49;;;;;;;42.22;27.75;;;1.60;99.90;;;;;;5011898;28;20107;-78
2022/12/04 09:01:15;;;;;;;42.45;26.33;;;2.50;99.90;;;;;;5015429;28;20046;-76
2022/12/04 09:03:41;;;;;;;46.22;28.52;;;1.60;99.90;;;;;;5011309;28;20049;-76
2022/12/04 09:06:12;;;;;;;43.85;27.58;;;1.60;99.90;;;;;;5019734;28;20049;-76
2022/12/04 09:08:38;;;;;;;46.08;28.52;;;1.70;99.90;;;;;;5019349;28;20096;-75
2022/12/04 09:11:16;;;;;;;43.97;27.08;;;2.60;99.90;;;;;;5017573;28;20045;-76
2022/12/04 09:13:43;;;;;;;45.60;26.88;;;1.70;99.90;;;;;;5016998;28;20056;-75
2022/12/04 09:16:12;;;;;;;46.40;30.17;;;2.80;99.90;;;;;;5016465;28;20107;-75
2022/12/04 09:18:38;;;;;;;44.97;26.92;;;2.10;99.90;;;;;;5016550;28;20049;-76
2022/12/04 09:21:09;;;;;;;43.65;26.75;;;1.70;99.90;;;;;;5016301;28;20379;-75
2022/12/04 09:23:37;;;;;;;44.10;25.98;;;2.60;99.90;;;;;;5026325;28;20052;-75
2022/12/04 09:26:03;;;;;;;42.90;26.75;;;2.10;99.90;;;;;;5017911;28;20100;-76
2022/12/04 09:28:30;;;;;;;46.80;28.40;;;1.80;99.90;;;;;;5020415;28;20069;-76
2022/12/04 09:31:05;;;;;;;45.35;26.95;;;1.90;99.90;;;;;;5021641;28;20061;-77
2022/12/04 09:33:31;;;;;;;46.58;26.80;;;1.90;99.90;;;;;;5020053;28;20111;-75
2022/12/04 09:35:58;;;;;;;46.10;27.67;;;3.20;99.90;;;;;;5019898;28;20081;-75
2022/12/04 09:38:25;;;;;;;43.15;27.30;;;2.00;99.90;;;;;;5018169;28;20046;-77
2022/12/04 09:41:17;;;;;;;42.70;27.52;;;2.70;99.90;;;;;;5019000;28;20053;-76
2022/12/04 09:43:53;;;;;;;45.72;27.33;;;2.00;99.90;;;;;;5009684;28;20810;-77
2022/12/04 09:46:31;;;;;;;41.28;26.10;;;2.30;99.90;;;;;;5025474;28;20049;-76
2022/12/04 09:49:01;;;;;;;41.97;26.45;;;2.70;99.90;;;;;;5022243;28;20095;-75
2022/12/04 09:51:27;;;;;;;42.42;26.45;;;2.50;99.90;;;;;;5014716;28;20072;-75
2022/12/04 09:54:09;;;;;;;36.00;23.58;;;2.40;99.90;;;;;;5006198;28;20046;-76
2022/12/04 09:56:34;;;;;;;39.25;26.63;;;2.60;99.90;;;;;;5015281;28;20850;-76
2022/12/04 09:59:13;;;;;;;37.42;23.55;;;2.20;99.90;;;;;;5014995;28;20111;-77
2022/12/04 10:02:09;;;;;;;41.47;23.95;;;2.40;99.90;;;;;;5018637;28;20045;-76
2022/12/04 10:04:34;;;;;;;34.75;22.75;;;2.30;99.90;;;;;;5005479;28;20161;-76
2022/12/04 10:07:25;;;;;;;37.45;24.35;;;3.20;99.90;;;;;;5016006;28;20057;-76
2022/12/04 10:10:07;;;;;;;33.78;20.92;;;3.40;99.90;;;;;;5026912;28;20110;-76
2022/12/04 10:12:53;;;;;;;35.38;22.35;;;2.40;99.90;;;;;;5019981;28;20041;-76
2022/12/04 10:15:35;;;;;;;34.85;22.88;;;2.50;99.90;;;;;;5017934;28;20061;-76
2022/12/04 10:18:29;;;;;;;34.75;21.38;;;2.60;99.90;;;;;;5015825;28;20045;-76
2022/12/04 10:21:03;;;;;;;37.22;22.13;;;2.60;99.90;;;;;;5008522;28;20049;-76
2022/12/04 10:23:37;;;;;;;29.38;19.05;;;3.50;99.90;;;;;;5015439;28;20085;-75
2022/12/04 10:26:04;;;;;;;34.40;21.30;;;2.70;99.90;;;;;;5016905;28;20232;-76
2022/12/04 10:28:44;;;;;;;32.65;22.05;;;2.70;99.90;;;;;;5017414;28;20581;-76
2022/12/04 10:31:13;;;;;;;33.33;20.23;;;3.30;99.90;;;;;;5020283;28;20053;-76
2022/12/04 10:33:49;;;;;;;29.75;18.02;;;2.90;99.90;;;;;;5015894;28;20041;-76
2022/12/04 10:36:22;;;;;;;30.48;20.35;;;2.70;99.90;;;;;;5014585;28;20096;-75
2022/12/04 10:38:54;;;;;;;30.25;18.48;;;3.30;99.90;;;;;;5011503;28;20049;-76
2022/12/04 10:41:44;;;;;;;30.73;18.75;;;2.80;99.90;;;;;;5021329;28;20045;-76
2022/12/04 10:44:15;;;;;;;28.88;17.45;;;2.80;99.90;;;;;;5014493;28;20940;-78
2022/12/04 10:46:41;;;;;;;25.80;17.23;;;2.80;99.90;;;;;;5010936;28;20042;-76
2022/12/04 10:49:20;;;;;;;29.33;18.92;;;2.80;99.90;;;;;;5025784;28;20108;-77
2022/12/04 10:51:46;;;;;;;25.35;17.92;;;2.80;99.90;;;;;;5008027;28;20046;-76
2022/12/04 10:54:22;;;;;;;24.83;17.67;;;2.90;99.90;;;;;;5029571;28;20133;-76
2022/12/04 10:56:56;;;;;;;26.92;19.15;;;2.80;99.90;;;;;;5010314;28;20053;-76
2022/12/04 10:59:23;;;;;;;23.33;17.85;;;2.80;99.90;;;;;;5028036;28;20077;-77
2022/12/04 11:01:51;;;;;;;25.70;17.20;;;3.50;99.90;;;;;;5019961;28;20059;-76
2022/12/04 11:04:25;;;;;;;32.50;19.55;;;3.40;99.90;;;;;;5017796;28;20580;-76
2022/12/04 11:07:01;;;;;;;27.85;16.52;;;3.30;99.90;;;;;;5020943;28;20049;-75
2022/12/04 11:09:28;;;;;;;28.48;17.02;;;3.20;99.90;;;;;;5017594;28;20064;-77
2022/12/04 11:12:06;;;;;;;27.95;18.13;;;2.90;99.90;;;;;;5014357;28;20057;-76
2022/12/04 11:14:32;;;;;;;24.38;17.42;;;2.90;99.90;;;;;;5024220;28;20087;-76
2022/12/04 11:17:04;;;;;;;27.20;18.13;;;3.60;99.90;;;;;;5024974;28;20124;-75
2022/12/04 11:19:35;;;;;;;25.40;15.88;;;3.40;99.90;;;;;;5019027;28;20045;-76
2022/12/04 11:22:19;;;;;;;24.58;16.20;;;3.60;99.90;;;;;;5014851;28;20057;-76
2022/12/04 11:24:57;;;;;;;24.75;14.20;;;3.00;99.90;;;;;;5012227;28;20126;-75
2022/12/04 11:27:32;;;;;;;21.17;12.85;;;3.10;99.90;;;;;;5020422;28;20061;-76
2022/12/04 11:30:08;;;;;;;23.52;14.90;;;3.50;99.90;;;;;;5012482;28;20049;-77
2022/12/04 11:32:34;;;;;;;25.92;16.02;;;3.00;99.90;;;;;;5020943;28;20076;-76
2022/12/04 11:35:11;;;;;;;25.38;16.25;;;3.00;99.90;;;;;;5014897;28;20072;-76
2022/12/04 11:37:37;;;;;;;24.50;15.48;;;3.00;99.90;;;;;;5015368;28;20075;-75
2022/12/04 11:40:13;;;;;;;28.05;16.20;;;2.90;99.90;;;;;;5018603;28;20476;-76
2022/12/04 11:42:39;;;;;;;28.25;17.38;;;3.00;99.90;;;;;;5019527;28;20061;-76
2022/12/04 11:45:22;;;;;;;26.13;15.68;;;3.00;99.90;;;;;;5010772;28;20052;-76
2022/12/04 11:47:57;;;;;;;25.35;16.45;;;2.90;99.90;;;;;;5028088;28;20046;-76
2022/12/04 11:50:47;;;;;;;21.80;16.08;;;3.00;99.90;;;;;;5018682;28;20088;-76
2022/12/04 11:53:19;;;;;;;23.67;14.80;;;3.00;99.90;;;;;;5022486;28;20057;-76
2022/12/04 11:55:45;;;;;;;30.33;16.83;;;3.00;99.90;;;;;;5020228;28;20114;-76
2022/12/04 11:58:50;;;;;;;27.33;18.42;;;2.90;99.90;;;;;;5011825;28;20049;-76
2022/12/04 12:01:28;;;;;;;25.88;16.33;;;3.00;99.90;;;;;;5019792;28;20136;-76
2022/12/04 12:04:12;;;;;;;26.17;16.42;;;3.00;99.90;;;;;;5019531;28;20053;-76
2022/12/04 12:06:52;;;;;;;23.90;16.80;;;3.00;99.90;;;;;;5010577;28;20049;-75
2022/12/04 12:09:24;;;;;;;26.63;15.98;;;3.00;99.90;;;;;;5009249;28;20124;-75
2022/12/04 12:12:03;;;;;;;20.75;14.75;;;3.00;99.90;;;;;;5014256;28;20101;-76
2022/12/04 12:14:37;;;;;;;27.48;15.70;;;3.10;99.90;;;;;;5022650;28;20048;-76
2022/12/04 12:17:28;;;;;;;26.98;16.58;;;3.10;99.90;;;;;;5030277;28;20822;-77
2022/12/04 12:20:06;;;;;;;25.63;15.98;;;3.10;99.90;;;;;;5006959;28;20434;-75
2022/12/04 12:22:50;;;;;;;25.85;16.33;;;3.70;99.90;;;;;;5001302;28;20769;-76
2022/12/04 12:25:28;;;;;;;24.85;16.23;;;4.10;99.90;;;;;;5013472;28;20810;-77
2022/12/04 12:28:10;;;;;;;25.40;16.15;;;3.20;99.90;;;;;;5015336;28;20203;-76
2022/12/04 12:30:41;;;;;;;24.55;15.80;;;3.60;99.90;;;;;;5019253;28;20052;-77
2022/12/04 12:33:22;;;;;;;21.65;14.07;;;3.60;99.90;;;;;;5024917;28;20054;-77
2022/12/04 12:36:01;;;;;;;22.70;16.08;;;3.20;99.90;;;;;;5019472;28;20054;-79
2022/12/04 12:38:54;;;;;;;22.55;15.15;;;3.20;99.90;;;;;;5016417;28;20042;-76
2022/12/04 12:41:24;;;;;;;28.23;17.60;;;3.20;99.90;;;;;;5015595;28;20522;-76
2022/12/04 12:44:09;;;;;;;21.33;15.80;;;3.20;99.90;;;;;;5013116;28;20216;-76
2022/12/04 12:46:42;;;;;;;22.67;16.65;;;3.20;99.90;;;;;;5019147;28;20053;-77
2022/12/04 12:49:24;;;;;;;26.70;17.65;;;3.20;99.90;;;;;;5015815;28;20532;-77
2022/12/04 12:52:22;;;;;;;25.25;15.48;;;2.90;99.90;;;;;;5015058;28;20049;-76
2022/12/04 12:54:54;;;;;;;27.60;16.80;;;3.40;99.90;;;;;;5011825;28;20052;-73
2022/12/04 12:58:03;;;;;;;24.35;16.65;;;3.20;99.90;;;;;;5014425;28;20057;-79
2022/12/04 13:00:30;;;;;;;27.50;17.63;;;3.20;99.90;;;;;;5013154;28;20041;-77
2022/12/04 13:03:04;;;;;;;26.55;18.08;;;3.20;99.90;;;;;;5025432;28;20055;-76
2022/12/04 13:05:42;;;;;;;27.67;18.83;;;4.00;99.90;;;;;;5022740;28;20085;-78
2022/12/04 13:08:21;;;;;;;22.83;16.73;;;3.20;99.90;;;;;;5021142;28;20049;-75
2022/12/04 13:11:14;;;;;;;22.48;16.35;;;3.20;99.90;;;;;;5019013;28;20041;-76
2022/12/04 13:13:45;;;;;;;27.15;17.33;;;3.20;99.90;;;;;;5010505;28;20056;-75